Time;durP1;ratioP1;P1;durP2;ratioP2;P2;SDS_P1;SDS_P2;PMS_P1;PMS_P2;Temp;Humidity;BMP_temperature;BMP_pressure;BME280_temperature;BME280_humidity;BME280_pressure;Samples;Min_cycle;Max_cycle;Signal;HPM_P1;HPM_P2
2022/11/12 00:02:19;;;;;;;12.40;8.30;;;5.00;99.90;;;;;;5041380;28;20210;-84
2022/11/12 00:04:45;;;;;;;13.30;8.63;;;5.00;99.90;;;;;;5041147;28;20192;-84
2022/11/12 00:07:11;;;;;;;14.73;9.40;;;5.00;99.90;;;;;;5040891;28;20189;-85
2022/11/12 00:09:36;;;;;;;10.70;7.80;;;5.00;99.90;;;;;;5056895;28;20248;-85
2022/11/12 00:12:02;;;;;;;14.17;9.23;;;5.00;99.90;;;;;;5056402;28;20734;-85
2022/11/12 00:14:27;;;;;;;19.83;9.33;;;5.00;99.90;;;;;;5056228;28;20261;-84
2022/11/12 00:16:53;;;;;;;13.73;9.73;;;5.00;99.90;;;;;;5073327;28;20181;-85
2022/11/12 00:19:18;;;;;;;12.13;8.73;;;5.00;99.90;;;;;;5056188;28;20218;-86
2022/11/12 00:21:44;;;;;;;17.30;9.40;;;4.80;99.90;;;;;;5056496;28;20228;-85
2022/11/12 00:24:10;;;;;;;14.90;9.00;;;5.00;99.90;;;;;;5056246;28;20193;-87
2022/11/12 00:26:35;;;;;;;10.90;8.50;;;5.00;99.90;;;;;;5039770;28;20192;-87
2022/11/12 00:29:01;;;;;;;12.73;9.03;;;5.00;99.90;;;;;;5055954;28;20255;-86
2022/11/12 00:31:26;;;;;;;12.47;7.80;;;4.90;99.90;;;;;;5056046;28;20619;-86
2022/11/12 00:33:53;;;;;;;11.70;8.07;;;5.10;99.90;;;;;;5039304;28;20217;-87
2022/11/12 00:36:19;;;;;;;11.17;7.50;;;5.00;99.90;;;;;;5040097;28;20291;-84
2022/11/12 00:38:45;;;;;;;13.50;7.77;;;4.80;99.90;;;;;;5072757;28;20433;-84
2022/11/12 00:41:10;;;;;;;20.30;10.30;;;4.80;99.90;;;;;;5055631;28;20183;-84
2022/11/12 00:43:36;;;;;;;21.40;10.40;;;4.80;99.90;;;;;;5056629;28;20630;-85
2022/11/12 00:46:01;;;;;;;19.63;10.23;;;4.80;99.90;;;;;;5040656;28;20216;-85
2022/11/12 00:48:27;;;;;;;16.20;10.17;;;4.90;99.90;;;;;;5040136;28;20296;-82
2022/11/12 00:51:02;;;;;;;13.70;8.07;;;4.90;99.90;;;;;;5040207;28;20194;-83
2022/11/12 00:53:28;;;;;;;17.03;9.20;;;5.00;99.90;;;;;;5092819;28;20293;-83
2022/11/12 00:56:02;;;;;;;14.80;9.40;;;5.00;99.90;;;;;;5055964;28;20860;-84
2022/11/12 00:58:30;;;;;;;24.70;12.90;;;4.90;99.90;;;;;;5090446;28;20700;-86
2022/11/12 01:00:56;;;;;;;36.10;18.50;;;4.90;99.90;;;;;;5072253;28;20900;-82
2022/11/12 01:03:22;;;;;;;23.20;12.93;;;4.90;99.90;;;;;;5072382;28;20209;-83
2022/11/12 01:05:47;;;;;;;16.90;10.83;;;4.70;99.90;;;;;;5072310;28;20412;-83
2022/11/12 01:08:13;;;;;;;21.30;10.00;;;4.60;99.90;;;;;;5038874;28;20279;-83
2022/11/12 01:10:38;;;;;;;13.83;8.97;;;4.40;99.90;;;;;;5055224;28;20205;-83
2022/11/12 01:13:04;;;;;;;19.80;9.70;;;4.40;99.90;;;;;;5055646;28;20207;-82
2022/11/12 01:15:30;;;;;;;15.73;9.73;;;4.40;99.90;;;;;;5038603;28;20235;-83
2022/11/12 01:17:55;;;;;;;9.53;7.30;;;4.50;99.90;;;;;;5055056;28;20183;-82
2022/11/12 01:20:21;;;;;;;13.13;8.00;;;4.40;99.90;;;;;;5090017;28;20637;-82
2022/11/12 01:22:46;;;;;;;12.00;8.17;;;4.40;99.90;;;;;;5038441;28;20197;-83
2022/11/12 01:25:12;;;;;;;12.27;7.90;;;4.40;99.90;;;;;;5071557;28;20182;-83
2022/11/12 01:27:38;;;;;;;11.27;7.57;;;4.40;99.90;;;;;;5038217;28;20182;-83
2022/11/12 01:30:04;;;;;;;13.17;8.70;;;4.30;99.90;;;;;;5054782;28;20201;-83
2022/11/12 01:32:34;;;;;;;12.67;8.07;;;4.30;99.90;;;;;;5054955;28;20677;-82
2022/11/12 01:35:00;;;;;;;10.88;7.70;;;4.40;99.90;;;;;;5071983;28;20847;-82
2022/11/12 01:37:25;;;;;;;17.47;9.20;;;4.30;99.90;;;;;;5054704;28;20229;-82
2022/11/12 01:39:51;;;;;;;22.70;9.50;;;4.40;99.90;;;;;;5038006;28;20205;-82
2022/11/12 01:42:16;;;;;;;13.50;9.73;;;4.40;99.90;;;;;;5038064;28;20183;-79
2022/11/12 01:44:45;;;;;;;23.53;10.70;;;4.30;99.90;;;;;;5054995;28;20211;-85
2022/11/12 01:47:20;;;;;;;21.80;11.67;;;4.40;99.90;;;;;;5071662;28;20262;-86
2022/11/12 01:49:55;;;;;;;26.80;11.18;;;4.40;99.90;;;;;;5089846;28;20500;-86
2022/11/12 01:52:27;;;;;;;56.53;12.27;;;4.40;99.90;;;;;;5089625;28;20181;-86
2022/11/12 01:54:55;;;;;;;49.40;13.00;;;4.40;99.90;;;;;;5071102;28;20459;-86
2022/11/12 01:57:29;;;;;;;90.23;13.57;;;4.40;99.90;;;;;;5055106;28;20799;-85
2022/11/12 01:59:59;;;;;;;75.57;11.85;;;4.30;99.90;;;;;;5054948;28;20444;-85
2022/11/12 02:02:26;;;;;;;71.00;11.10;;;4.30;99.90;;;;;;5038265;28;20210;-86
2022/11/12 02:04:54;;;;;;;39.17;9.20;;;4.30;99.90;;;;;;5071165;28;20416;-86
2022/11/12 02:07:22;;;;;;;87.70;13.50;;;4.30;99.90;;;;;;5089172;28;20494;-86
2022/11/12 02:09:47;;;;;;;140.50;13.13;;;4.30;99.90;;;;;;5071054;28;20444;-85
2022/11/12 02:13:56;;;;;;;45.17;10.10;;;4.00;99.90;;;;;;5054151;28;20424;-85
2022/11/12 02:14:59;;;;;;;112.37;12.10;;;3.90;99.90;;;;;;5073773;28;20574;-84
2022/11/12 02:17:25;;;;;;;139.23;14.97;;;4.00;99.90;;;;;;5037753;28;20501;-85
2022/11/12 02:19:51;;;;;;;122.27;12.40;;;3.90;99.90;;;;;;5037769;28;20217;-81
2022/11/12 02:22:17;;;;;;;49.20;10.23;;;3.90;99.90;;;;;;5071080;28;20745;-81
2022/11/12 02:24:43;;;;;;;106.30;12.23;;;4.00;99.90;;;;;;5054165;28;20534;-81
2022/11/12 02:27:10;;;;;;;162.37;13.50;;;3.80;99.90;;;;;;5070997;28;20243;-85
2022/11/12 02:29:45;;;;;;;179.67;12.50;;;3.80;99.90;;;;;;5070867;28;20213;-84
2022/11/12 02:32:11;;;;;;;82.53;10.30;;;3.70;99.90;;;;;;5072257;28;20419;-85
2022/11/12 02:34:38;;;;;;;48.60;9.90;;;3.60;99.90;;;;;;5053984;28;20562;-86
2022/11/12 02:37:04;;;;;;;49.70;9.30;;;3.70;99.90;;;;;;5054301;28;20526;-85
2022/11/12 02:39:30;;;;;;;25.08;7.50;;;3.70;99.90;;;;;;5070726;28;20961;-85
2022/11/12 02:41:56;;;;;;;105.93;9.07;;;3.80;99.90;;;;;;5053911;28;20532;-84
2022/11/12 02:44:21;;;;;;;38.37;8.93;;;3.70;99.90;;;;;;5070843;28;20182;-84
2022/11/12 02:46:47;;;;;;;8.33;7.43;;;3.70;99.90;;;;;;5037579;28;20186;-84
2022/11/12 02:49:12;;;;;;;22.83;7.97;;;3.80;99.90;;;;;;5053990;28;20211;-85
2022/11/12 02:51:38;;;;;;;13.33;7.67;;;3.80;99.90;;;;;;5070976;28;20189;-88
2022/11/12 02:54:03;;;;;;;14.53;7.30;;;3.80;99.90;;;;;;5070825;28;20319;-86
2022/11/12 02:56:29;;;;;;;22.77;7.97;;;3.80;99.90;;;;;;5054470;28;20197;-83
2022/11/12 02:58:55;;;;;;;11.07;7.20;;;3.80;99.90;;;;;;5038289;28;20410;-82
2022/11/12 03:01:20;;;;;;;30.60;6.77;;;3.70;99.90;;;;;;5071694;28;20204;-82
2022/11/12 03:03:46;;;;;;;7.70;6.13;;;3.60;99.90;;;;;;5058677;28;20271;-83
2022/11/12 03:06:12;;;;;;;19.63;6.87;;;3.60;99.90;;;;;;5075414;28;20697;-77
2022/11/12 03:08:37;;;;;;;6.37;5.27;;;3.50;99.90;;;;;;5074939;28;20508;-78
2022/11/12 03:11:09;;;;;;;6.00;5.40;;;3.60;99.90;;;;;;5058011;28;20186;-78
2022/11/12 03:13:34;;;;;;;6.50;5.90;;;3.50;99.90;;;;;;5074462;28;20200;-77
2022/11/12 03:16:00;;;;;;;8.70;6.73;;;3.60;99.90;;;;;;5074815;28;20191;-77
2022/11/12 03:18:26;;;;;;;12.20;7.40;;;3.60;99.90;;;;;;5058341;28;20258;-78
2022/11/12 03:20:51;;;;;;;10.40;7.20;;;3.70;99.90;;;;;;5074985;28;20192;-79
2022/11/12 03:23:17;;;;;;;81.37;9.60;;;3.80;99.90;;;;;;5074700;28;20238;-77
2022/11/12 03:25:43;;;;;;;45.37;8.43;;;3.80;99.90;;;;;;5075119;28;20269;-77
2022/11/12 03:28:11;;;;;;;105.50;11.00;;;3.80;99.90;;;;;;5093090;28;20212;-78
2022/11/12 03:30:40;;;;;;;65.10;9.15;;;3.80;99.90;;;;;;5074909;28;20435;-76
2022/11/12 03:33:07;;;;;;;48.53;10.25;;;3.80;99.90;;;;;;5092838;28;20285;-76
2022/11/12 03:35:34;;;;;;;121.07;10.43;;;3.70;99.90;;;;;;5092599;28;20183;-78
2022/11/12 03:38:00;;;;;;;85.35;9.02;;;3.50;99.90;;;;;;5092747;28;20824;-79
2022/11/12 03:40:26;;;;;;;98.20;10.40;;;3.40;99.90;;;;;;5074552;28;20185;-77
2022/11/12 03:42:52;;;;;;;116.50;10.37;;;3.40;99.90;;;;;;5074708;28;20183;-79
2022/11/12 03:45:20;;;;;;;36.53;7.90;;;3.30;99.90;;;;;;5041332;28;20928;-80
2022/11/12 03:47:48;;;;;;;25.60;7.05;;;3.20;99.90;;;;;;5092797;28;20181;-79
2022/11/12 03:50:15;;;;;;;81.88;9.45;;;3.30;99.90;;;;;;5074910;28;20662;-79
2022/11/12 03:52:49;;;;;;;15.80;6.63;;;3.30;99.90;;;;;;5073970;28;20182;-78
2022/11/12 03:55:16;;;;;;;8.82;5.95;;;3.30;99.90;;;;;;5074150;28;20197;-77
2022/11/12 03:57:42;;;;;;;10.40;7.22;;;3.40;99.90;;;;;;5092305;28;20639;-78
2022/11/12 04:00:09;;;;;;;14.30;7.20;;;3.50;99.90;;;;;;5057666;28;20202;-78
2022/11/12 04:02:36;;;;;;;9.15;6.35;;;3.60;99.90;;;;;;5073932;28;20240;-78
2022/11/12 04:10:33;;;;;;;7.90;6.50;;;3.60;99.90;;;;;;5092880;28;20231;-80
2022/11/12 04:15:43;;;;;;;7.53;6.10;;;3.70;99.90;;;;;;5062818;28;20205;-77
2022/11/12 04:23:54;;;;;;;7.57;6.40;;;3.80;99.90;;;;;;5029361;28;20430;-76
2022/11/12 04:26:23;;;;;;;7.67;6.43;;;3.80;99.90;;;;;;5061073;28;20663;-77
2022/11/12 04:31:32;;;;;;;10.40;7.10;;;3.70;99.90;;;;;;5091882;28;20726;-80
2022/11/12 04:34:27;;;;;;;11.50;8.00;;;3.70;99.90;;;;;;5056480;28;20456;-79
2022/11/12 04:36:44;;;;;;;6.83;5.80;;;3.60;99.90;;;;;;5062185;28;20217;-75
2022/11/12 04:39:09;;;;;;;6.90;6.17;;;3.70;99.90;;;;;;5091216;28;20477;-74
2022/11/12 04:47:03;;;;;;;7.27;5.70;;;3.70;99.90;;;;;;5075679;28;20430;-75
2022/11/12 04:49:29;;;;;;;8.10;6.10;;;3.80;99.90;;;;;;5072824;28;20929;-74
2022/11/12 04:52:06;;;;;;;9.67;6.97;;;3.80;99.90;;;;;;5091194;28;20190;-75
2022/11/12 04:54:32;;;;;;;9.13;8.15;;;3.80;99.90;;;;;;5091336;28;20284;-75
2022/11/12 04:56:59;;;;;;;10.50;8.83;;;3.80;99.90;;;;;;5056460;28;20190;-75
2022/11/12 04:59:25;;;;;;;8.45;6.90;;;3.80;99.90;;;;;;5091376;28;20447;-74
2022/11/12 05:01:51;;;;;;;8.57;7.10;;;3.80;99.90;;;;;;5091174;28;20185;-74
2022/11/12 05:04:16;;;;;;;9.38;7.57;;;3.80;99.90;;;;;;5091213;28;20418;-74
2022/11/12 05:06:51;;;;;;;12.80;7.30;;;3.80;99.90;;;;;;5091267;28;20552;-74
2022/11/12 05:09:22;;;;;;;8.03;6.53;;;3.70;99.90;;;;;;5072625;28;20708;-75
2022/11/12 05:11:47;;;;;;;9.02;6.68;;;3.80;99.90;;;;;;5091160;28;20422;-77
2022/11/12 05:14:13;;;;;;;7.23;6.13;;;3.70;99.90;;;;;;5072642;28;20596;-74
2022/11/12 05:16:39;;;;;;;9.57;7.20;;;3.70;99.90;;;;;;5073925;28;20316;-77
2022/11/12 05:19:04;;;;;;;12.80;9.00;;;3.70;99.90;;;;;;5072378;28;20198;-74
2022/11/12 05:24:14;;;;;;;12.50;7.90;;;3.70;99.90;;;;;;5090759;28;20232;-74
2022/11/12 05:26:40;;;;;;;10.07;7.90;;;3.70;99.90;;;;;;5054831;28;20209;-75
2022/11/12 05:29:06;;;;;;;10.93;7.30;;;3.70;99.90;;;;;;5071993;28;20205;-74
2022/11/12 05:31:31;;;;;;;11.97;7.33;;;3.60;99.90;;;;;;5090226;28;20224;-74
2022/11/12 05:33:57;;;;;;;8.83;7.00;;;3.70;99.90;;;;;;5055031;28;20209;-75
2022/11/12 05:36:23;;;;;;;17.60;7.03;;;3.70;99.90;;;;;;5071603;28;20182;-74
2022/11/12 05:38:48;;;;;;;11.43;6.60;;;3.70;99.90;;;;;;5090607;28;20195;-74
2022/11/12 05:41:14;;;;;;;9.40;6.60;;;3.70;99.90;;;;;;5091608;28;20186;-74
2022/11/12 05:43:39;;;;;;;22.33;7.63;;;3.70;99.90;;;;;;5091460;28;20186;-74
2022/11/12 05:46:05;;;;;;;106.30;10.50;;;3.60;99.90;;;;;;5055711;28;20662;-74
2022/11/12 05:48:31;;;;;;;160.17;11.40;;;3.50;99.90;;;;;;5090862;28;20215;-73
2022/11/12 05:50:56;;;;;;;131.63;9.33;;;3.50;99.90;;;;;;5091058;28;20520;-74
2022/11/12 05:53:22;;;;;;;104.47;9.87;;;3.20;99.90;;;;;;5073877;28;20963;-73
2022/11/12 05:55:48;;;;;;;109.60;11.67;;;3.30;99.90;;;;;;5091235;28;20216;-73
2022/11/12 05:58:13;;;;;;;94.70;11.57;;;3.30;99.90;;;;;;5075448;28;20210;-74
2022/11/12 06:00:39;;;;;;;94.87;10.07;;;3.30;99.90;;;;;;5093586;28;20178;-73
2022/11/12 06:03:06;;;;;;;92.47;11.00;;;3.30;99.90;;;;;;5090118;28;20283;-74
2022/11/12 06:05:32;;;;;;;84.60;11.60;;;3.20;99.90;;;;;;5089739;28;20600;-74
2022/11/12 06:07:58;;;;;;;29.27;10.57;;;3.10;99.90;;;;;;5089766;28;20189;-74
2022/11/12 06:10:24;;;;;;;56.70;8.30;;;3.20;99.90;;;;;;5089342;28;20794;-75
2022/11/12 06:12:49;;;;;;;33.47;11.60;;;3.00;99.90;;;;;;5054448;28;20422;-74
2022/11/12 06:15:15;;;;;;;39.10;11.40;;;3.00;99.90;;;;;;5089331;28;20172;-76
2022/11/12 06:17:41;;;;;;;10.53;7.90;;;3.00;99.90;;;;;;5089182;28;20178;-77
2022/11/12 06:20:07;;;;;;;10.80;8.70;;;3.10;99.90;;;;;;5089254;28;20193;-77
2022/11/12 06:22:33;;;;;;;11.90;8.33;;;3.20;99.90;;;;;;5089109;28;20195;-74
2022/11/12 06:24:59;;;;;;;12.13;7.17;;;3.10;99.90;;;;;;5071233;28;20521;-74
2022/11/12 06:27:25;;;;;;;11.17;6.33;;;3.10;99.90;;;;;;5089556;28;20288;-74
2022/11/12 06:29:50;;;;;;;8.23;6.67;;;3.00;99.90;;;;;;5089207;28;20215;-75
2022/11/12 06:32:16;;;;;;;6.93;6.20;;;3.10;99.90;;;;;;5071387;28;20474;-74
2022/11/12 06:34:41;;;;;;;6.20;5.53;;;3.20;99.90;;;;;;5071098;28;20213;-77
2022/11/12 06:37:07;;;;;;;7.47;6.23;;;3.30;99.90;;;;;;5088972;28;20270;-74
2022/11/12 06:39:32;;;;;;;7.10;5.90;;;3.30;99.90;;;;;;5088806;28;20240;-74
2022/11/12 06:41:58;;;;;;;5.87;5.27;;;3.40;99.90;;;;;;5070704;28;20189;-74
2022/11/12 06:44:24;;;;;;;5.70;5.10;;;3.50;99.90;;;;;;5070604;28;20204;-74
2022/11/12 06:46:49;;;;;;;8.23;6.40;;;3.50;99.90;;;;;;5070935;28;20280;-74
2022/11/12 06:49:15;;;;;;;6.73;5.60;;;3.50;99.90;;;;;;5089063;28;20220;-75
2022/11/12 06:51:41;;;;;;;5.30;4.80;;;3.60;99.90;;;;;;5070744;28;20194;-75
2022/11/12 06:54:06;;;;;;;6.07;5.47;;;3.70;99.90;;;;;;5070747;28;20258;-75
2022/11/12 06:56:32;;;;;;;6.33;5.53;;;3.70;99.90;;;;;;5089042;28;20186;-76
2022/11/12 06:58:58;;;;;;;5.37;4.93;;;3.80;99.90;;;;;;5070863;28;20211;-74
2022/11/12 07:01:23;;;;;;;8.03;5.80;;;3.80;99.90;;;;;;5071319;28;20193;-74
2022/11/12 07:03:52;;;;;;;7.43;6.23;;;3.80;99.90;;;;;;5089151;28;20474;-76
2022/11/12 07:06:19;;;;;;;7.47;5.80;;;3.80;99.90;;;;;;5089220;28;20189;-76
2022/11/12 07:08:48;;;;;;;7.53;6.30;;;3.80;99.90;;;;;;5070480;28;20531;-75
2022/11/12 07:11:15;;;;;;;9.20;5.87;;;3.80;99.90;;;;;;5070203;28;20423;-76
2022/11/12 07:13:43;;;;;;;6.28;5.50;;;3.90;99.90;;;;;;5088489;28;20575;-75
2022/11/12 07:16:10;;;;;;;6.80;5.60;;;4.00;99.90;;;;;;5088672;28;20217;-76
2022/11/12 07:18:36;;;;;;;5.63;5.10;;;4.10;99.90;;;;;;5088526;28;20436;-74
2022/11/12 07:21:08;;;;;;;9.63;7.63;;;4.10;99.90;;;;;;5088661;28;21087;-76
2022/11/12 07:23:35;;;;;;;13.37;8.43;;;4.20;99.90;;;;;;5053653;28;20432;-76
2022/11/12 07:26:16;;;;;;;13.63;8.32;;;4.30;99.90;;;;;;5070431;28;20462;-76
2022/11/12 07:28:42;;;;;;;6.83;6.13;;;4.40;99.90;;;;;;5088425;28;20207;-76
2022/11/12 07:31:11;;;;;;;8.37;6.63;;;4.40;99.90;;;;;;5089032;28;20424;-76
2022/11/12 07:33:37;;;;;;;7.38;6.55;;;4.50;99.90;;;;;;5088466;28;20450;-76
2022/11/12 07:36:08;;;;;;;8.50;6.33;;;4.60;99.90;;;;;;5088357;28;20240;-76
2022/11/12 07:38:37;;;;;;;9.40;7.13;;;4.70;99.90;;;;;;5069751;28;20444;-76
2022/11/12 07:41:09;;;;;;;9.37;7.50;;;4.80;99.90;;;;;;5052945;28;20424;-75
2022/11/12 07:43:36;;;;;;;7.80;7.00;;;4.80;99.90;;;;;;5088180;28;20424;-76
2022/11/12 07:46:11;;;;;;;7.70;6.90;;;4.80;99.90;;;;;;5088147;28;20527;-76
2022/11/12 07:48:38;;;;;;;11.30;8.93;;;4.90;99.90;;;;;;5088551;28;20444;-77
2022/11/12 07:51:15;;;;;;;12.73;9.80;;;5.10;99.90;;;;;;5091939;28;20477;-76
2022/11/12 07:53:42;;;;;;;15.77;10.57;;;5.00;99.90;;;;;;5091767;28;20814;-77
2022/11/12 07:56:10;;;;;;;12.27;10.18;;;5.10;99.90;;;;;;5091762;28;20430;-76
2022/11/12 07:58:35;;;;;;;13.60;10.40;;;5.10;99.90;;;;;;5091567;28;20207;-76
2022/11/12 08:01:33;;;;;;;11.60;10.17;;;5.30;99.90;;;;;;5091633;28;20431;-77
2022/11/12 08:04:00;;;;;;;12.47;10.47;;;5.40;99.90;;;;;;5090853;28;20213;-76
2022/11/12 08:06:26;;;;;;;11.60;9.50;;;5.70;99.90;;;;;;5072994;28;20413;-77
2022/11/12 08:08:53;;;;;;;15.77;10.73;;;6.20;99.90;;;;;;5091402;28;20948;-77
2022/11/12 08:11:19;;;;;;;12.93;10.80;;;6.20;99.90;;;;;;5091532;28;20418;-76
2022/11/12 08:13:45;;;;;;;10.27;9.27;;;6.60;99.90;;;;;;5073011;28;20468;-77
2022/11/12 08:16:10;;;;;;;11.23;9.03;;;7.20;99.90;;;;;;5073189;28;20428;-76
2022/11/12 08:18:36;;;;;;;12.00;9.27;;;7.60;99.90;;;;;;5056214;28;20245;-77
2022/11/12 08:21:04;;;;;;;10.07;7.70;;;8.30;99.90;;;;;;5073082;28;20174;-76
2022/11/12 08:23:30;;;;;;;9.93;8.37;;;9.10;99.90;;;;;;5091088;28;20184;-77
2022/11/12 08:26:00;;;;;;;10.13;8.30;;;9.60;99.90;;;;;;5072734;28;20428;-77
2022/11/12 08:28:27;;;;;;;10.77;9.70;;;9.90;99.90;;;;;;5090997;28;20211;-77
2022/11/12 08:30:53;;;;;;;11.90;9.83;;;10.20;99.90;;;;;;5091331;28;20527;-77
2022/11/12 08:33:19;;;;;;;10.63;9.63;;;10.30;99.90;;;;;;5091297;28;21040;-77
2022/11/12 08:35:45;;;;;;;9.60;8.10;;;10.80;99.90;;;;;;5072963;28;20437;-77
2022/11/12 08:38:12;;;;;;;11.23;10.03;;;11.80;99.90;;;;;;5073041;28;20290;-77
2022/11/12 08:40:39;;;;;;;12.67;9.77;;;12.80;99.90;;;;;;5073814;28;20190;-77
2022/11/12 08:43:09;;;;;;;10.57;9.57;;;13.70;99.90;;;;;;5057270;28;20522;-76
2022/11/12 08:45:38;;;;;;;12.40;9.27;;;14.40;99.90;;;;;;5092054;28;20443;-77
2022/11/12 08:48:07;;;;;;;11.03;7.60;;;14.90;98.50;;;;;;5092369;28;20949;-77
2022/11/12 08:50:33;;;;;;;8.80;6.87;;;15.50;97.40;;;;;;5074527;28;20426;-77
2022/11/12 08:53:04;;;;;;;9.47;7.43;;;16.00;95.40;;;;;;5092611;28;21226;-77
2022/11/12 08:55:32;;;;;;;7.73;6.43;;;16.30;93.90;;;;;;5074082;28;20426;-77
2022/11/12 08:58:00;;;;;;;7.30;6.40;;;16.40;92.80;;;;;;5092338;28;20439;-77
2022/11/12 09:00:27;;;;;;;8.03;6.40;;;16.30;93.10;;;;;;5073181;28;20942;-77
2022/11/12 09:02:53;;;;;;;6.80;6.20;;;16.60;92.80;;;;;;5091915;28;21161;-77
2022/11/12 09:05:19;;;;;;;7.27;6.47;;;17.10;92.10;;;;;;5074206;28;20429;-77
2022/11/12 09:07:45;;;;;;;7.13;6.53;;;17.70;90.80;;;;;;5092481;28;20243;-77
2022/11/12 09:10:10;;;;;;;7.80;7.00;;;17.30;87.40;;;;;;5091948;28;20424;-76
2022/11/12 09:12:37;;;;;;;7.60;6.80;;;16.80;90.30;;;;;;5073244;28;20288;-78
2022/11/12 09:15:03;;;;;;;7.40;6.70;;;16.20;91.60;;;;;;5073725;28;20217;-77
2022/11/12 09:17:31;;;;;;;7.30;6.60;;;15.50;93.40;;;;;;5091405;28;20415;-77
2022/11/12 09:19:57;;;;;;;7.23;6.60;;;15.10;94.20;;;;;;5072888;28;20944;-77
2022/11/12 09:22:22;;;;;;;7.60;6.87;;;15.10;95.90;;;;;;5072017;28;20447;-77
2022/11/12 09:24:48;;;;;;;8.37;7.57;;;15.00;95.80;;;;;;5090463;28;20520;-76
2022/11/12 09:27:14;;;;;;;8.70;7.80;;;15.30;96.10;;;;;;5090198;28;20205;-76
2022/11/12 09:29:39;;;;;;;13.07;8.23;;;15.00;96.70;;;;;;5090104;28;20214;-76
2022/11/12 09:32:05;;;;;;;9.37;8.33;;;14.60;97.10;;;;;;5089913;28;20267;-77
2022/11/12 09:34:30;;;;;;;9.37;7.90;;;14.60;97.40;;;;;;5089853;28;20234;-77
2022/11/12 09:36:56;;;;;;;10.77;8.00;;;14.70;97.30;;;;;;5054780;28;20184;-76
2022/11/12 09:39:22;;;;;;;8.77;7.70;;;15.10;97.50;;;;;;5089648;28;20233;-76
2022/11/12 09:41:47;;;;;;;12.40;8.57;;;15.40;96.80;;;;;;5089849;28;20241;-76
2022/11/12 09:44:18;;;;;;;9.33;8.07;;;15.40;95.50;;;;;;5071496;28;20192;-76
2022/11/12 09:46:52;;;;;;;9.93;8.30;;;15.50;96.20;;;;;;5071571;28;20556;-76
2022/11/12 09:49:49;;;;;;;9.03;8.03;;;15.00;96.10;;;;;;5089494;28;20436;-76
2022/11/12 09:52:25;;;;;;;10.53;8.33;;;14.50;97.60;;;;;;5089778;28;20536;-76
2022/11/12 09:55:04;;;;;;;9.50;8.23;;;14.40;98.00;;;;;;5071703;28;21107;-77
2022/11/12 09:57:32;;;;;;;10.53;8.40;;;14.10;98.10;;;;;;5089630;28;20417;-76
2022/11/12 09:59:58;;;;;;;10.70;8.13;;;14.00;99.90;;;;;;5071525;28;20881;-76
2022/11/12 10:02:23;;;;;;;14.03;9.00;;;13.90;99.90;;;;;;5089713;28;20429;-77
2022/11/12 10:05:33;;;;;;;11.73;8.20;;;13.60;99.90;;;;;;5089702;28;20424;-76
2022/11/12 10:08:18;;;;;;;11.30;9.37;;;13.60;99.90;;;;;;5089687;28;20640;-76
2022/11/12 10:10:50;;;;;;;9.27;7.50;;;13.80;99.90;;;;;;5089736;28;20420;-77
2022/11/12 10:13:50;;;;;;;10.87;8.20;;;14.00;99.90;;;;;;5073006;28;20489;-77
2022/11/12 10:16:43;;;;;;;9.07;7.67;;;14.10;99.90;;;;;;5073429;28;20429;-77
2022/11/12 10:19:39;;;;;;;15.27;8.70;;;14.40;99.90;;;;;;5092348;28;20433;-76
2022/11/12 10:22:20;;;;;;;9.30;7.80;;;15.10;99.90;;;;;;5071577;28;20463;-76
2022/11/12 10:24:47;;;;;;;11.23;8.43;;;15.60;98.40;;;;;;5090142;28;20420;-76
2022/11/12 10:27:25;;;;;;;9.63;8.57;;;15.70;98.00;;;;;;5090054;28;20452;-77
2022/11/12 10:30:04;;;;;;;8.30;7.43;;;15.50;97.50;;;;;;5055438;28;20444;-76
2022/11/12 10:32:29;;;;;;;12.30;8.60;;;15.70;97.90;;;;;;5089777;28;20775;-76
2022/11/12 10:34:55;;;;;;;8.70;7.77;;;15.70;97.80;;;;;;5054884;28;20559;-76
2022/11/12 10:37:58;;;;;;;9.60;7.90;;;16.10;97.40;;;;;;5054856;28;20279;-76
2022/11/12 10:40:37;;;;;;;9.60;8.60;;;16.00;96.70;;;;;;5030018;28;20276;-76
2022/11/12 10:43:18;;;;;;;10.17;8.07;;;16.30;97.10;;;;;;5085061;28;20527;-76
2022/11/12 10:45:45;;;;;;;13.83;8.10;;;16.40;95.90;;;;;;5071410;28;20425;-76
2022/11/12 10:48:32;;;;;;;10.13;7.60;;;16.40;95.80;;;;;;5071157;28;20478;-76
2022/11/12 10:50:58;;;;;;;10.20;8.10;;;16.40;96.20;;;;;;5089731;28;20821;-76
2022/11/12 10:53:37;;;;;;;12.43;9.60;;;16.90;96.20;;;;;;5054783;28;20489;-76
2022/11/12 10:56:28;;;;;;;10.43;8.43;;;17.30;95.40;;;;;;5089654;28;20433;-77
2022/11/12 10:59:12;;;;;;;19.83;8.67;;;17.20;94.90;;;;;;5084838;28;20932;-76
2022/11/12 11:01:38;;;;;;;9.70;8.80;;;16.90;95.60;;;;;;5089603;28;20421;-77
2022/11/12 11:04:14;;;;;;;10.43;9.43;;;16.50;96.20;;;;;;5071431;28;20434;-77
2022/11/12 11:06:39;;;;;;;9.83;7.87;;;16.10;96.70;;;;;;5072765;28;20406;-76
2022/11/12 11:09:11;;;;;;;10.67;8.63;;;15.90;97.50;;;;;;5089247;28;20437;-76
2022/11/12 11:11:36;;;;;;;10.20;8.33;;;15.70;97.90;;;;;;5089145;28;20203;-76
2022/11/12 11:14:25;;;;;;;10.67;8.57;;;15.20;98.80;;;;;;5070869;28;20458;-76
2022/11/12 11:16:53;;;;;;;10.00;7.63;;;15.00;99.80;;;;;;5089024;28;20183;-76
2022/11/12 11:19:19;;;;;;;10.40;7.93;;;14.80;99.90;;;;;;5089711;28;20435;-76
2022/11/12 11:21:47;;;;;;;13.60;8.30;;;14.70;99.90;;;;;;5055238;28;20413;-76
2022/11/12 11:24:38;;;;;;;8.93;8.03;;;14.40;99.90;;;;;;5091487;28;20412;-76
2022/11/12 11:27:29;;;;;;;10.57;8.83;;;14.10;99.90;;;;;;5075680;28;20425;-76
2022/11/12 11:30:09;;;;;;;9.70;7.53;;;14.00;99.90;;;;;;5094114;28;20443;-76
2022/11/12 11:33:12;;;;;;;10.07;7.60;;;13.70;99.90;;;;;;5075382;28;20450;-76
2022/11/12 11:35:40;;;;;;;10.13;6.87;;;13.70;99.90;;;;;;5093453;28;20557;-77
2022/11/12 11:38:52;;;;;;;7.83;6.50;;;13.40;99.90;;;;;;5074718;28;20863;-77
2022/11/12 11:41:46;;;;;;;9.57;7.00;;;13.20;99.90;;;;;;5032703;28;21423;-76
2022/11/12 11:44:20;;;;;;;15.13;9.83;;;13.20;99.90;;;;;;5049365;28;20912;-76
2022/11/12 11:47:27;;;;;;;14.63;11.20;;;13.20;99.90;;;;;;5082426;28;20411;-76
2022/11/12 11:50:18;;;;;;;10.97;7.47;;;13.30;99.90;;;;;;5068747;28;20455;-76
2022/11/12 11:52:54;;;;;;;11.73;8.40;;;13.10;99.90;;;;;;5092500;28;20955;-76
2022/11/12 11:55:41;;;;;;;8.63;7.57;;;13.00;99.90;;;;;;5075645;28;20561;-76
2022/11/12 11:58:32;;;;;;;10.10;7.37;;;12.90;99.90;;;;;;5092404;28;20441;-76
2022/11/12 12:01:03;;;;;;;7.70;6.93;;;12.70;99.90;;;;;;5074400;28;20420;-76
2022/11/12 12:03:35;;;;;;;9.10;7.73;;;12.70;99.90;;;;;;5092659;28;20467;-76
2022/11/12 12:06:19;;;;;;;7.97;7.17;;;12.70;99.90;;;;;;5092699;28;20424;-76
2022/11/12 12:09:12;;;;;;;10.47;7.83;;;12.70;99.90;;;;;;5074429;28;20440;-76
2022/11/12 12:11:59;;;;;;;7.70;6.90;;;12.70;99.90;;;;;;5093385;28;20418;-76
2022/11/12 12:14:27;;;;;;;11.67;8.17;;;12.70;99.90;;;;;;5092287;28;20467;-76
2022/11/12 12:16:59;;;;;;;11.60;7.33;;;12.80;99.90;;;;;;5073750;28;20434;-76
2022/11/12 12:19:31;;;;;;;11.10;8.30;;;13.00;99.90;;;;;;5091668;28;21145;-76
2022/11/12 12:22:00;;;;;;;12.70;9.63;;;13.20;99.90;;;;;;5091689;28;20781;-76
2022/11/12 12:24:31;;;;;;;11.10;8.60;;;13.10;99.90;;;;;;5091604;28;20795;-76
2022/11/12 12:27:03;;;;;;;14.87;9.63;;;13.10;99.90;;;;;;5091343;28;20423;-76
2022/11/12 12:29:39;;;;;;;13.20;8.60;;;13.10;99.90;;;;;;5073130;28;20475;-76
2022/11/12 12:32:13;;;;;;;11.90;8.23;;;13.30;99.90;;;;;;5073252;28;20420;-76
2022/11/12 12:34:43;;;;;;;12.77;8.30;;;13.50;99.90;;;;;;5090940;28;20456;-76
2022/11/12 12:37:40;;;;;;;9.23;7.10;;;13.60;99.90;;;;;;5091053;28;20546;-76
2022/11/12 12:40:21;;;;;;;9.13;7.80;;;13.70;99.90;;;;;;5090892;28;21010;-76
2022/11/12 12:42:56;;;;;;;9.67;7.70;;;13.60;99.90;;;;;;5090911;28;20497;-77
2022/11/12 12:45:34;;;;;;;14.40;7.83;;;13.60;99.90;;;;;;5090681;28;20423;-76
2022/11/12 12:48:03;;;;;;;8.87;7.80;;;13.60;99.90;;;;;;5072647;28;20824;-76
2022/11/12 12:50:29;;;;;;;11.03;7.97;;;13.40;99.90;;;;;;5056246;28;20428;-76
2022/11/12 12:53:01;;;;;;;7.43;6.73;;;13.40;99.90;;;;;;5072581;28;20931;-76
2022/11/12 12:55:42;;;;;;;8.90;7.63;;;13.40;99.90;;;;;;5090535;28;20507;-76
2022/11/12 12:58:29;;;;;;;10.57;7.50;;;13.30;99.90;;;;;;5090523;28;20436;-76
2022/11/12 13:01:02;;;;;;;8.30;7.23;;;13.30;99.90;;;;;;5072213;28;20473;-76
2022/11/12 13:03:43;;;;;;;8.90;7.90;;;13.20;99.90;;;;;;5090446;28;20809;-76
2022/11/12 13:06:23;;;;;;;11.07;8.87;;;13.10;99.90;;;;;;5090383;28;20454;-76
2022/11/12 13:09:07;;;;;;;8.80;7.80;;;13.00;99.90;;;;;;5090332;28;20845;-76
2022/11/12 13:14:34;;;;;;;9.93;7.57;;;12.90;99.90;;;;;;5090373;28;20536;-76
2022/11/12 13:17:10;;;;;;;14.10;7.60;;;12.80;99.90;;;;;;5071826;28;20429;-76
2022/11/12 13:20:01;;;;;;;9.20;8.00;;;12.70;99.90;;;;;;5090109;28;20522;-76
2022/11/12 13:22:39;;;;;;;8.20;7.40;;;12.70;99.90;;;;;;5071185;28;20417;-76
2022/11/12 13:25:11;;;;;;;8.87;6.77;;;12.70;99.90;;;;;;5090232;28;20501;-76
2022/11/12 13:27:42;;;;;;;9.80;7.60;;;12.70;99.90;;;;;;5090120;28;20416;-76
2022/11/12 13:30:17;;;;;;;8.83;7.57;;;12.80;99.90;;;;;;5089798;28;20436;-76